Time;durP1;ratioP1;P1;durP2;ratioP2;P2;SDS_P1;SDS_P2;PMS_P1;PMS_P2;Temp;Humidity;BMP_temperature;BMP_pressure;BME280_temperature;BME280_humidity;BME280_pressure;Samples;Min_cycle;Max_cycle;Signal;HPM_P1;HPM_P2
2023/06/02 00:03:37;;;;;;;1999.90;999.90;;;15.20;99.90;;;;;;6716099;87;20285;-78
2023/06/02 00:13:38;;;;;;;1999.90;999.90;;;15.20;99.90;;;;;;6697380;87;20199;-78
2023/06/02 00:23:39;;;;;;;1999.90;999.90;;;15.00;99.90;;;;;;6701861;87;20201;-77
2023/06/02 00:33:41;;;;;;;1999.90;999.90;;;14.90;99.90;;;;;;6714548;87;20180;-78
2023/06/02 00:43:42;;;;;;;1999.90;999.90;;;14.70;99.90;;;;;;6709206;87;20188;-78
2023/06/02 00:53:44;;;;;;;1999.90;999.90;;;14.50;99.90;;;;;;6728965;87;20475;-78
2023/06/02 01:03:49;;;;;;;1999.90;999.90;;;14.60;99.90;;;;;;6713637;87;20327;-77
2023/06/02 01:13:51;;;;;;;1999.90;999.90;;;14.40;99.90;;;;;;6689195;88;20189;-78
2023/06/02 01:23:57;;;;;;;1999.90;999.90;;;14.40;99.90;;;;;;6691096;88;20183;-79
2023/06/02 01:34:13;;;;;;;1999.90;999.90;;;14.40;99.90;;;;;;6692168;88;20284;-80
2023/06/02 01:44:32;;;;;;;1999.90;999.90;;;14.40;99.90;;;;;;6714752;87;20700;-77
2023/06/02 01:54:33;;;;;;;1999.90;999.90;;;14.20;99.90;;;;;;6699629;87;20323;-80
2023/06/02 02:04:54;;;;;;;1999.90;999.90;;;14.20;99.90;;;;;;6720291;76;20182;-78
2023/06/02 02:14:56;;;;;;;1999.90;999.90;;;14.20;99.90;;;;;;6738757;88;20207;-80
2023/06/02 02:24:57;;;;;;;1999.90;999.90;;;14.10;99.90;;;;;;6735262;88;20221;-80
2023/06/02 02:34:57;;;;;;;1999.90;999.90;;;14.10;99.90;;;;;;6741139;88;20219;-79
2023/06/02 02:44:58;;;;;;;1999.90;999.90;;;14.10;99.90;;;;;;6731574;88;20205;-80
2023/06/02 02:54:59;;;;;;;1999.90;999.90;;;14.10;99.90;;;;;;6729050;88;20734;-80
2023/06/02 03:05:02;;;;;;;1999.90;999.90;;;14.00;99.90;;;;;;6727865;88;20185;-79
2023/06/02 03:15:03;;;;;;;1999.90;999.90;;;13.90;99.90;;;;;;6732757;88;20204;-79
2023/06/02 03:25:05;;;;;;;1999.90;999.90;;;13.90;99.90;;;;;;6731354;88;20769;-78
2023/06/02 03:35:06;;;;;;;1999.90;999.90;;;13.80;99.90;;;;;;6732678;88;20201;-79
2023/06/02 03:45:07;;;;;;;1999.90;999.90;;;13.70;99.90;;;;;;6732265;88;20505;-81
2023/06/02 03:55:07;;;;;;;1999.90;999.90;;;13.70;99.90;;;;;;6732639;88;20194;-81
2023/06/02 04:05:11;;;;;;;1999.90;999.90;;;13.60;99.90;;;;;;6725912;88;20265;-77
2023/06/02 04:15:12;;;;;;;1999.90;999.90;;;13.70;99.90;;;;;;6747428;88;20185;-79
2023/06/02 04:25:12;;;;;;;1999.90;999.90;;;13.70;99.90;;;;;;6740587;88;20698;-80
2023/06/02 04:35:13;;;;;;;1999.90;999.90;;;13.60;99.90;;;;;;6729262;88;20318;-79
2023/06/02 04:45:16;;;;;;;1999.90;999.90;;;13.60;99.90;;;;;;6752199;88;20154;-79
2023/06/02 04:55:16;;;;;;;1999.90;999.90;;;13.70;99.90;;;;;;6769229;88;20787;-78
2023/06/02 05:05:17;;;;;;;1999.90;999.90;;;13.50;99.90;;;;;;6732524;88;20183;-79
2023/06/02 05:15:17;;;;;;;1999.90;999.90;;;13.40;99.90;;;;;;6717284;88;20520;-79
2023/06/02 05:25:18;;;;;;;1999.90;999.90;;;13.40;99.90;;;;;;6735755;88;20187;-79
2023/06/02 05:35:18;;;;;;;1999.90;999.90;;;13.50;99.90;;;;;;6739816;88;20248;-80
2023/06/02 05:45:19;;;;;;;1999.90;999.90;;;13.40;99.90;;;;;;6731199;88;20250;-79
2023/06/02 05:55:19;;;;;;;1999.90;999.90;;;13.40;99.90;;;;;;6718508;88;20225;-80
2023/06/02 06:05:20;;;;;;;1999.90;999.90;;;13.50;99.90;;;;;;6730915;88;20203;-79
2023/06/02 06:15:20;;;;;;;1999.90;999.90;;;13.70;99.90;;;;;;6734851;88;20186;-79
2023/06/02 06:25:21;;;;;;;1999.90;999.90;;;13.50;99.90;;;;;;6725138;88;20197;-78
2023/06/02 06:35:21;;;;;;;1999.90;999.90;;;13.60;99.90;;;;;;6722562;88;20185;-80
2023/06/02 06:45:22;;;;;;;1999.90;999.90;;;13.70;99.90;;;;;;6731744;88;20691;-79
2023/06/02 06:55:23;;;;;;;1999.90;999.90;;;13.70;99.90;;;;;;6737539;88;20209;-79
2023/06/02 07:05:23;;;;;;;1999.90;999.90;;;13.80;99.90;;;;;;6730187;88;20295;-79
2023/06/02 07:15:24;;;;;;;1999.90;999.90;;;14.10;99.90;;;;;;6730836;88;20178;-80
2023/06/02 07:25:24;;;;;;;1999.90;999.90;;;14.30;99.90;;;;;;6727789;88;20207;-80
2023/06/02 07:35:25;;;;;;;1999.90;999.90;;;14.60;99.90;;;;;;6731524;88;20289;-80
2023/06/02 07:45:26;;;;;;;1999.90;999.90;;;15.00;99.90;;;;;;6735444;88;20205;-80
2023/06/02 07:55:26;;;;;;;1999.90;999.90;;;15.60;99.90;;;;;;6732546;88;20290;-80
2023/06/02 08:05:27;;;;;;;1999.90;999.90;;;15.90;99.60;;;;;;6682845;77;20638;-77
2023/06/02 08:15:27;;;;;;;1999.90;999.90;;;16.50;98.80;;;;;;6658725;88;20242;-78
2023/06/02 08:25:28;;;;;;;1999.90;999.90;;;16.90;97.90;;;;;;6652915;88;20260;-80
2023/06/02 08:35:29;;;;;;;1999.90;999.90;;;18.30;95.50;;;;;;6648587;88;20217;-80
2023/06/02 08:45:30;;;;;;;1999.90;999.90;;;18.70;95.20;;;;;;6644335;88;20242;-79
2023/06/02 08:55:32;;;;;;;1999.90;999.90;;;19.30;93.70;;;;;;6662596;88;20220;-80
2023/06/02 09:05:33;;;;;;;1999.90;999.90;;;20.20;92.70;;;;;;6704162;88;20659;-80
2023/06/02 09:15:35;;;;;;;1999.90;999.90;;;19.30;93.00;;;;;;6728479;88;20182;-80
2023/06/02 09:25:38;;;;;;;1999.90;999.90;;;20.30;92.00;;;;;;6728554;88;20166;-79
2023/06/02 09:35:44;;;;;;;1999.90;999.90;;;21.10;90.70;;;;;;6727588;88;20181;-78
2023/06/02 09:45:47;;;;;;;1999.90;999.90;;;21.40;90.10;;;;;;6729170;88;20186;-79
2023/06/02 09:55:50;;;;;;;1999.90;999.90;;;22.70;89.20;;;;;;6729689;88;20200;-78
2023/06/02 10:06:07;;;;;;;1999.90;999.90;;;22.50;87.00;;;;;;6732906;88;20335;-78
2023/06/02 10:16:29;;;;;;;1999.90;999.90;;;22.60;85.50;;;;;;6728333;88;20205;-78
2023/06/02 10:26:49;;;;;;;1999.90;999.90;;;22.50;85.20;;;;;;6732220;88;20969;-78
2023/06/02 10:37:10;;;;;;;1999.90;999.90;;;23.40;82.80;;;;;;6726500;88;20644;-78
2023/06/02 10:47:19;;;;;;;1999.90;999.90;;;22.70;83.30;;;;;;6728705;88;20189;-78
2023/06/02 10:57:49;;;;;;;1999.90;999.90;;;23.90;82.10;;;;;;6732200;88;20264;-78
2023/06/02 11:08:11;;;;;;;1999.90;999.90;;;23.20;83.20;;;;;;6729828;88;20198;-80
2023/06/02 11:18:31;;;;;;;1999.90;999.90;;;25.40;80.80;;;;;;6728498;88;20233;-78
2023/06/02 11:28:31;;;;;;;1999.90;999.90;;;26.10;78.10;;;;;;6739049;88;20185;-78
2023/06/02 11:38:32;;;;;;;1999.90;999.90;;;25.60;77.90;;;;;;6735684;88;20189;-79
2023/06/02 11:48:36;;;;;;;1999.90;999.90;;;26.40;75.50;;;;;;6720265;88;20523;-78
2023/06/02 11:58:44;;;;;;;1999.90;999.90;;;26.10;74.80;;;;;;6730269;88;20193;-77
2023/06/02 12:08:46;;;;;;;1999.90;999.90;;;26.20;75.10;;;;;;6731105;88;20186;-78
2023/06/02 12:18:47;;;;;;;1999.90;999.90;;;26.30;73.30;;;;;;6730087;88;20298;-78
2023/06/02 12:28:50;;;;;;;1999.90;999.90;;;26.20;72.80;;;;;;6725273;88;20778;-78
2023/06/02 12:38:50;;;;;;;1999.90;999.90;;;25.90;73.20;;;;;;6728691;88;20236;-77
2023/06/02 12:48:51;;;;;;;1999.90;999.90;;;26.60;72.80;;;;;;6726317;88;20676;-78
2023/06/02 12:58:51;;;;;;;1999.90;999.90;;;26.40;72.60;;;;;;6723659;88;20190;-77
2023/06/02 13:08:52;;;;;;;1999.90;999.90;;;26.80;72.30;;;;;;6722991;88;20241;-78
2023/06/02 13:18:52;;;;;;;1999.90;999.90;;;26.40;71.70;;;;;;6733657;88;20222;-78
2023/06/02 13:28:53;;;;;;;1999.90;999.90;;;26.70;70.90;;;;;;6725117;88;20180;-78
2023/06/02 13:38:53;;;;;;;1999.90;999.90;;;27.70;70.60;;;;;;6724979;88;20320;-77
2023/06/02 13:48:54;;;;;;;1999.90;999.90;;;26.90;69.90;;;;;;6726253;88;20328;-78
2023/06/02 13:58:55;;;;;;;1999.90;999.90;;;26.70;70.90;;;;;;6725621;88;20214;-78
2023/06/02 14:19:57;;;;;;;1999.90;999.90;;;27.70;69.80;;;;;;6734415;88;20221;-80
2023/06/02 14:29:57;;;;;;;1999.90;999.90;;;27.20;68.60;;;;;;6737213;88;20269;-81
2023/06/02 14:39:58;;;;;;;1999.90;999.90;;;27.30;68.40;;;;;;6740788;88;20257;-80
2023/06/02 14:49:59;;;;;;;1999.90;999.90;;;27.60;69.00;;;;;;6732844;88;20212;-80
2023/06/02 15:00:00;;;;;;;1999.90;999.90;;;27.70;67.90;;;;;;6736706;88;20296;-80
2023/06/02 15:10:00;;;;;;;1999.90;999.90;;;27.40;68.40;;;;;;6732370;88;20209;-81
2023/06/02 15:20:01;;;;;;;1999.90;999.90;;;27.20;68.10;;;;;;6733950;88;20330;-81
2023/06/02 15:30:02;;;;;;;1999.90;999.90;;;27.00;67.20;;;;;;6725718;88;20258;-81
2023/06/02 15:40:03;;;;;;;1999.90;999.90;;;27.10;68.40;;;;;;6731024;88;20189;-80
2023/06/02 15:50:04;;;;;;;1999.90;999.90;;;27.20;68.60;;;;;;6734637;88;20190;-83
2023/06/02 16:00:06;;;;;;;1999.90;999.90;;;27.00;68.80;;;;;;6739390;88;20193;-81
2023/06/02 16:10:07;;;;;;;1999.90;999.90;;;27.10;69.40;;;;;;6736245;88;20267;-80
2023/06/02 16:20:08;;;;;;;1999.90;999.90;;;27.20;70.70;;;;;;6734682;88;20300;-81
2023/06/02 16:30:10;;;;;;;1999.90;999.90;;;26.60;72.20;;;;;;6727857;88;20244;-81
2023/06/02 16:40:11;;;;;;;1999.90;999.90;;;25.60;74.20;;;;;;6727025;88;20186;-82
2023/06/02 16:50:12;;;;;;;1999.90;999.90;;;25.10;75.50;;;;;;6743519;88;20651;-82
2023/06/02 17:00:13;;;;;;;1999.90;999.90;;;24.50;77.70;;;;;;6740732;88;20186;-81
2023/06/02 17:10:13;;;;;;;1999.90;999.90;;;24.30;77.70;;;;;;6737944;88;20203;-82
2023/06/02 17:20:16;;;;;;;1999.90;999.90;;;24.40;77.60;;;;;;6734329;88;20237;-83
2023/06/02 17:30:16;;;;;;;1999.90;999.90;;;23.70;78.90;;;;;;6733406;88;20212;-82
2023/06/02 17:40:17;;;;;;;1999.90;999.90;;;23.10;79.20;;;;;;6748726;88;20212;-83
2023/06/02 17:50:17;;;;;;;1999.90;999.90;;;22.50;81.20;;;;;;6741707;88;20220;-83
2023/06/02 18:00:18;;;;;;;1999.90;999.90;;;21.90;82.10;;;;;;6740297;88;20153;-81
2023/06/02 18:10:20;;;;;;;1999.90;999.90;;;21.60;83.30;;;;;;6744555;88;20591;-84
2023/06/02 18:20:20;;;;;;;1999.90;999.90;;;21.10;83.20;;;;;;6741105;88;20655;-81
2023/06/02 18:30:21;;;;;;;1999.90;999.90;;;21.00;83.40;;;;;;6746568;88;20203;-82
2023/06/02 18:40:22;;;;;;;1999.90;999.90;;;20.90;82.90;;;;;;6736163;88;20192;-80
2023/06/02 18:50:22;;;;;;;1999.90;999.90;;;20.60;86.90;;;;;;6732506;88;20220;-76
2023/06/02 19:00:23;;;;;;;1999.90;999.90;;;20.00;84.80;;;;;;6734422;88;20200;-79
2023/06/02 19:10:23;;;;;;;1999.90;999.90;;;20.00;86.20;;;;;;6723668;88;21158;-81
2023/06/02 19:20:24;;;;;;;1999.90;999.90;;;19.70;88.10;;;;;;6716143;88;20364;-81
2023/06/02 19:30:25;;;;;;;1999.90;999.90;;;19.40;86.50;;;;;;6694397;88;20246;-82
2023/06/02 19:40:25;;;;;;;1999.90;999.90;;;19.20;86.40;;;;;;6752462;88;20294;-80
2023/06/02 19:50:26;;;;;;;1999.90;999.90;;;18.90;86.40;;;;;;6738501;88;20572;-80
2023/06/02 20:00:26;;;;;;;1999.90;999.90;;;18.70;87.00;;;;;;6743422;77;20821;-79
2023/06/02 20:10:27;;;;;;;1999.90;999.90;;;18.40;88.30;;;;;;6735238;88;20188;-78
2023/06/02 20:20:29;;;;;;;1999.90;999.90;;;18.30;88.50;;;;;;6734243;88;20325;-78
2023/06/02 20:30:29;;;;;;;1999.90;999.90;;;18.20;90.10;;;;;;6731609;88;20354;-78
2023/06/02 20:40:30;;;;;;;1999.90;999.90;;;17.90;89.60;;;;;;6733354;88;20224;-79
2023/06/02 20:50:30;;;;;;;1999.90;999.90;;;17.60;90.20;;;;;;6729913;88;20657;-78
2023/06/02 21:00:31;;;;;;;1999.90;999.90;;;17.60;90.50;;;;;;6736105;88;20258;-78
2023/06/02 21:10:31;;;;;;;1999.90;999.90;;;17.40;90.60;;;;;;6732058;88;20215;-78
2023/06/02 21:20:32;;;;;;;1999.90;999.90;;;17.20;91.20;;;;;;6731710;88;20231;-79
2023/06/02 21:30:32;;;;;;;1999.90;999.90;;;17.10;91.60;;;;;;6733672;88;20599;-78
2023/06/02 21:40:33;;;;;;;1999.90;999.90;;;16.80;92.20;;;;;;6736092;88;20879;-77
2023/06/02 21:50:33;;;;;;;1999.90;999.90;;;16.60;92.40;;;;;;6740976;88;20238;-76
2023/06/02 22:00:34;;;;;;;1999.90;999.90;;;16.50;92.90;;;;;;6732067;88;20202;-77
2023/06/02 22:10:34;;;;;;;1999.90;999.90;;;16.40;94.10;;;;;;6733261;88;20425;-77
2023/06/02 22:20:35;;;;;;;1999.90;999.90;;;16.10;95.80;;;;;;6728308;88;20190;-78
2023/06/02 22:30:36;;;;;;;1999.90;999.90;;;15.80;99.90;;;;;;6733726;88;20275;-77
2023/06/02 22:40:36;;;;;;;1999.90;999.90;;;15.70;99.90;;;;;;6733093;88;20183;-76
2023/06/02 22:50:37;;;;;;;1999.90;999.90;;;15.70;99.90;;;;;;6732867;88;20185;-75
2023/06/02 23:00:38;;;;;;;1999.90;999.90;;;15.60;99.90;;;;;;6729506;88;20670;-77
2023/06/02 23:10:40;;;;;;;1999.90;999.90;;;15.50;99.90;;;;;;6734121;88;20181;-78
2023/06/02 23:20:40;;;;;;;1999.90;999.90;;;15.20;99.90;;;;;;6717096;88;20247;-79
2023/06/02 23:30:41;;;;;;;1999.90;999.90;;;15.10;99.90;;;;;;6713293;88;20346;-78
2023/06/02 23:40:41;;;;;;;1999.90;999.90;;;15.00;99.90;;;;;;6719148;88;20269;-77
2023/06/02 23:50:42;;;;;;;1999.90;999.90;;;14.90;99.90;;;;;;6717250;88;20588;-76
